createdAt,value
2022-09-02T00:00:24.398Z,5.53
2022-09-02T00:03:50.387Z,6.05
2022-09-02T00:07:14.405Z,5.40
2022-09-02T00:10:37.421Z,4.57
2022-09-02T00:13:56.389Z,4.78
2022-09-02T00:17:20.465Z,4.72
2022-09-02T00:20:45.430Z,5.05
2022-09-02T00:24:08.457Z,6.10
2022-09-02T00:27:34.414Z,5.28
2022-09-02T00:30:59.427Z,4.85
2022-09-02T00:34:23.421Z,4.50
2022-09-02T00:37:47.464Z,5.72
2022-09-02T00:41:11.481Z,4.93
2022-09-02T00:44:35.446Z,6.05
2022-09-02T00:48:00.480Z,4.70
2022-09-02T00:51:25.395Z,5.05
2022-09-02T00:54:53.417Z,7.35
2022-09-02T00:58:14.019Z,5.10
2022-09-02T01:01:32.567Z,8.07
2022-09-02T01:04:55.446Z,5.20
2022-09-02T01:08:19.470Z,3.90
2022-09-02T01:11:50.454Z,7.05
2022-09-02T01:15:14.541Z,3.92
2022-09-02T01:18:44.441Z,4.88
2022-09-02T01:22:12.547Z,3.15
2022-09-02T01:25:40.399Z,4.03
2022-09-02T01:29:04.482Z,3.42
2022-09-02T01:32:29.477Z,3.60
2022-09-02T01:35:52.416Z,3.58
2022-09-02T01:39:16.481Z,4.70
2022-09-02T01:42:40.476Z,3.50
2022-09-02T01:46:07.480Z,3.35
2022-09-02T01:49:33.374Z,4.18
2022-09-02T01:53:02.434Z,4.07
2022-09-02T01:56:25.471Z,6.15
2022-09-02T01:59:54.502Z,3.63
2022-09-02T02:03:29.475Z,4.18
2022-09-02T02:06:56.483Z,5.85
2022-09-02T02:10:21.504Z,4.97
2022-09-02T02:13:45.442Z,4.63
2022-09-02T02:17:11.467Z,12.10
2022-09-02T02:20:37.481Z,6.85
2022-09-02T02:24:01.456Z,5.60
2022-09-02T02:27:26.575Z,5.40
2022-09-02T02:30:54.461Z,3.80
2022-09-02T02:34:18.478Z,5.20
2022-09-02T02:37:42.438Z,3.88
2022-09-02T02:41:12.486Z,4.78
2022-09-02T02:44:37.477Z,3.50
2022-09-02T02:48:01.477Z,3.38
2022-09-02T02:51:25.482Z,3.60
2022-09-02T02:54:49.524Z,3.90
2022-09-02T02:58:13.440Z,5.13
2022-09-02T03:01:39.593Z,2.63
2022-09-02T03:05:04.465Z,4.82
2022-09-02T03:08:29.493Z,4.57
2022-09-02T03:11:55.513Z,3.80
2022-09-02T03:15:22.452Z,3.70
2022-09-02T03:18:46.540Z,5.32
2022-09-02T03:22:10.495Z,3.33
2022-09-02T03:25:36.506Z,3.58
2022-09-02T03:29:11.503Z,4.63
2022-09-02T03:32:35.499Z,4.45
2022-09-02T03:36:00.525Z,3.70
2022-09-02T03:39:28.519Z,5.10
2022-09-02T03:42:56.731Z,3.38
2022-09-02T03:46:25.590Z,3.30
2022-09-02T03:49:49.535Z,3.83
2022-09-02T03:53:19.830Z,5.15
2022-09-02T03:56:48.549Z,4.90
2022-09-02T04:00:12.510Z,4.10
2022-09-02T04:03:31.126Z,3.65
2022-09-02T04:06:48.521Z,2.65
2022-09-02T04:10:12.471Z,3.33
2022-09-02T04:13:36.528Z,3.30
2022-09-02T04:17:02.469Z,4.45
2022-09-02T04:20:27.551Z,3.00
2022-09-02T04:23:52.571Z,2.83
2022-09-02T04:27:17.515Z,2.83
2022-09-02T04:30:41.510Z,4.07
2022-09-02T04:34:07.583Z,4.30
2022-09-02T04:37:33.525Z,3.13
2022-09-02T04:41:00.520Z,4.03
2022-09-02T04:44:23.500Z,3.75
2022-09-02T04:47:48.534Z,4.95
2022-09-02T04:51:12.506Z,5.25
2022-09-02T04:54:39.527Z,4.85
2022-09-02T04:58:04.498Z,4.63
2022-09-02T05:01:34.677Z,3.63
2022-09-02T05:05:03.578Z,5.03
2022-09-02T05:08:31.488Z,5.38
2022-09-02T05:11:56.573Z,7.13
2022-09-02T05:15:29.552Z,6.93
2022-09-02T05:18:52.541Z,6.78
2022-09-02T05:22:25.572Z,7.35
2022-09-02T05:25:52.593Z,5.43
2022-09-02T05:29:17.576Z,6.97
2022-09-02T05:32:42.592Z,4.82
2022-09-02T05:36:06.529Z,6.75
2022-09-02T05:39:30.613Z,5.00
2022-09-02T05:42:56.571Z,4.93
2022-09-02T05:46:22.580Z,3.67
2022-09-02T05:49:47.583Z,4.25
2022-09-02T05:53:14.566Z,6.95
2022-09-02T05:56:38.617Z,8.43
2022-09-02T06:00:04.555Z,6.53
2022-09-02T06:03:29.550Z,6.43
2022-09-02T06:06:49.086Z,5.70
2022-09-02T06:10:06.602Z,5.93
2022-09-02T06:13:30.545Z,5.82
2022-09-02T06:16:49.614Z,7.47
2022-09-02T06:20:27.589Z,6.50
2022-09-02T06:23:53.559Z,6.75
2022-09-02T06:27:17.569Z,6.20
2022-09-02T06:30:43.589Z,8.10
2022-09-02T06:34:13.598Z,9.05
2022-09-02T06:37:39.577Z,6.90
2022-09-02T06:41:09.581Z,6.18
2022-09-02T06:44:34.615Z,7.18
2022-09-02T06:47:59.628Z,6.50
2022-09-02T06:51:34.546Z,6.07
2022-09-02T06:54:59.632Z,6.72
2022-09-02T06:58:25.578Z,7.10
2022-09-02T07:01:49.782Z,5.30
2022-09-02T07:05:23.584Z,4.15
2022-09-02T07:08:47.636Z,4.57
2022-09-02T07:12:14.544Z,5.93
2022-09-02T07:15:44.634Z,15.73
2022-09-02T07:19:15.116Z,15.10
2022-09-02T07:22:44.769Z,8.50
2022-09-02T07:26:10.621Z,8.25
2022-09-02T07:29:36.597Z,5.70
2022-09-02T07:33:02.616Z,9.07
2022-09-02T07:36:29.627Z,7.72
2022-09-02T07:39:54.579Z,9.50
2022-09-02T07:43:21.599Z,4.90
2022-09-02T07:46:46.879Z,7.03
2022-09-02T07:50:19.162Z,6.78
2022-09-02T07:53:45.624Z,9.80
2022-09-02T07:57:10.554Z,8.52
2022-09-02T08:00:35.607Z,9.40
2022-09-02T08:04:02.848Z,11.55
2022-09-02T08:07:26.657Z,10.48
2022-09-02T08:10:51.711Z,8.43
2022-09-02T08:14:16.737Z,7.65
2022-09-02T08:17:40.621Z,6.13
2022-09-02T08:21:04.659Z,8.63
2022-09-02T08:24:28.641Z,8.05
2022-09-02T08:27:52.694Z,10.38
2022-09-02T08:31:21.687Z,6.05
2022-09-02T08:34:45.626Z,7.78
2022-09-02T08:38:09.635Z,8.18
2022-09-02T08:42:12.634Z,11.88
2022-09-02T08:45:38.615Z,12.95
2022-09-02T08:49:08.671Z,12.55
2022-09-02T08:52:54.645Z,15.25
2022-09-02T08:56:21.617Z,11.48
2022-09-02T08:59:45.661Z,11.10
2022-09-02T09:03:12.606Z,9.93
2022-09-02T09:07:01.635Z,10.65
2022-09-02T09:10:33.652Z,10.38
2022-09-02T09:14:03.237Z,10.88
2022-09-02T09:17:34.696Z,11.15
2022-09-02T09:20:59.643Z,15.02
2022-09-02T09:24:36.645Z,17.52
2022-09-02T09:28:00.643Z,24.70
2022-09-02T09:31:27.685Z,16.10
2022-09-02T09:35:11.690Z,23.58
2022-09-02T09:38:46.618Z,23.10
2022-09-02T09:42:12.624Z,37.78
2022-09-02T09:45:51.758Z,41.13
2022-09-02T09:49:16.712Z,37.40
2022-09-02T09:52:42.616Z,35.00
2022-09-02T09:56:37.226Z,33.55
2022-09-02T10:00:04.650Z,43.72
2022-09-02T10:03:37.684Z,37.83
2022-09-02T10:07:01.667Z,34.83
2022-09-02T10:10:34.668Z,54.63
2022-09-02T10:13:58.654Z,40.00
2022-09-02T10:17:34.626Z,31.92
2022-09-02T10:21:33.642Z,27.40
2022-09-02T10:25:09.667Z,35.28
2022-09-02T10:29:00.821Z,31.10
2022-09-02T10:32:49.704Z,12.52
2022-09-02T10:36:54.638Z,11.25
2022-09-02T10:40:46.722Z,11.15
2022-09-02T10:44:28.674Z,11.73
2022-09-02T10:47:54.684Z,13.20
2022-09-02T10:51:24.706Z,11.75
2022-09-02T10:55:00.691Z,11.63
2022-09-02T10:58:40.669Z,10.52
2022-09-02T11:02:14.653Z,11.30
2022-09-02T11:05:57.654Z,10.70
2022-09-02T11:09:46.647Z,7.10
2022-09-02T11:13:19.664Z,8.45
2022-09-02T11:16:50.689Z,8.23
2022-09-02T11:20:28.732Z,10.10
2022-09-02T11:24:30.669Z,7.40
2022-09-02T11:28:11.982Z,9.88
2022-09-02T11:31:56.682Z,8.80
2022-09-02T11:39:36.631Z,10.05
2022-09-02T11:43:50.713Z,8.68
2022-09-02T11:47:20.704Z,10.68
2022-09-02T11:51:10.736Z,10.15
2022-09-02T11:54:35.876Z,10.77
2022-09-02T11:58:09.729Z,9.48
2022-09-02T12:01:49.706Z,12.02
2022-09-02T12:05:43.863Z,11.02
2022-09-02T12:09:07.741Z,12.18
2022-09-02T12:12:54.710Z,10.07
2022-09-02T12:16:30.802Z,10.77
2022-09-02T12:19:59.748Z,9.88
2022-09-02T12:23:25.712Z,11.00
2022-09-02T12:26:56.752Z,11.32
2022-09-02T12:30:24.710Z,13.75
2022-09-02T12:33:53.781Z,11.82
2022-09-02T12:37:19.671Z,12.48
2022-09-02T12:40:49.807Z,12.02
2022-09-02T12:44:38.719Z,10.30
2022-09-02T12:48:16.704Z,9.93
2022-09-02T12:52:10.717Z,10.43
2022-09-02T12:55:45.720Z,12.00
2022-09-02T12:59:10.711Z,15.25
2022-09-02T13:02:53.673Z,17.15
2022-09-02T13:06:21.721Z,14.93
2022-09-02T13:10:23.682Z,12.48
2022-09-02T13:14:16.783Z,33.45
2022-09-02T13:18:18.387Z,69.80
2022-09-02T13:21:41.766Z,59.40
2022-09-02T13:25:38.739Z,45.78
2022-09-02T13:29:21.767Z,14.45
2022-09-02T13:32:46.684Z,15.20
2022-09-02T13:36:15.716Z,13.55
2022-09-02T13:39:43.752Z,14.38
2022-09-02T13:43:13.719Z,13.20
2022-09-02T13:46:37.795Z,11.63
2022-09-02T13:50:05.728Z,13.23
2022-09-02T13:54:22.119Z,11.50
2022-09-02T13:57:42.754Z,15.00
2022-09-02T14:01:06.825Z,14.63
2022-09-02T14:04:32.711Z,14.63
2022-09-02T14:07:58.727Z,16.48
2022-09-02T14:11:22.788Z,14.93
2022-09-02T14:14:47.739Z,14.18
2022-09-02T14:18:29.745Z,16.30
2022-09-02T14:22:01.745Z,18.45
2022-09-02T14:25:32.737Z,16.15
2022-09-02T14:28:56.703Z,13.95
2022-09-02T14:32:28.093Z,15.57
2022-09-02T14:40:25.784Z,9.52
2022-09-02T14:44:07.724Z,8.27
2022-09-02T14:47:32.788Z,8.30
2022-09-02T14:51:02.129Z,8.38
2022-09-02T14:54:26.780Z,9.40
2022-09-02T14:57:51.768Z,9.40
2022-09-02T15:01:16.821Z,9.20
2022-09-02T15:04:43.799Z,8.80
2022-09-02T15:08:08.748Z,11.50
2022-09-02T15:11:33.768Z,13.02
2022-09-02T15:14:57.816Z,11.70
2022-09-02T15:18:29.708Z,10.02
2022-09-02T15:21:56.773Z,11.02
2022-09-02T15:25:21.727Z,8.02
2022-09-02T15:28:46.815Z,10.50
2022-09-02T15:32:11.728Z,11.90
2022-09-02T15:35:35.772Z,9.88
2022-09-02T15:39:01.733Z,10.93
2022-09-02T15:42:26.767Z,11.82
2022-09-02T15:46:00.826Z,11.35
2022-09-02T15:49:26.817Z,11.50
2022-09-02T15:52:50.773Z,11.57
2022-09-02T15:56:15.776Z,12.43
2022-09-02T15:59:41.747Z,12.45
2022-09-02T16:02:59.859Z,10.95
2022-09-02T16:06:23.809Z,12.02
2022-09-02T16:09:48.788Z,7.85
2022-09-02T16:13:12.760Z,9.23
2022-09-02T16:16:37.852Z,10.05
2022-09-02T16:19:55.464Z,9.50
2022-09-02T16:23:12.817Z,9.95
2022-09-02T16:26:43.804Z,10.68
2022-09-02T16:30:07.789Z,11.82
2022-09-02T16:33:32.751Z,11.25
2022-09-02T16:37:01.913Z,11.93
2022-09-02T16:40:28.777Z,10.50
2022-09-02T16:43:53.833Z,12.13
2022-09-02T16:47:16.804Z,12.13
2022-09-02T16:50:42.778Z,11.18
2022-09-02T16:54:17.304Z,10.93
2022-09-02T16:57:45.782Z,16.27
2022-09-02T17:01:09.848Z,12.68
2022-09-02T17:04:33.826Z,19.45
2022-09-02T17:07:56.799Z,14.63
2022-09-02T17:11:37.791Z,12.25
2022-09-02T17:15:00.754Z,15.00
2022-09-02T17:18:24.827Z,11.57
2022-09-02T17:21:59.794Z,11.35
2022-09-02T17:25:23.776Z,13.50
2022-09-02T17:28:54.795Z,13.55
2022-09-02T17:32:18.822Z,11.75
2022-09-02T17:35:42.796Z,11.48
2022-09-02T17:39:15.850Z,11.77
2022-09-02T17:42:39.808Z,11.33
2022-09-02T17:46:03.894Z,13.80
2022-09-02T17:49:28.867Z,12.25
2022-09-02T17:52:53.779Z,11.65
2022-09-02T17:56:48.813Z,12.07
2022-09-02T18:00:18.826Z,11.63
2022-09-02T18:04:02.936Z,11.07
2022-09-02T18:07:49.849Z,13.63
2022-09-02T18:11:15.866Z,13.45
2022-09-02T18:14:59.803Z,11.07
2022-09-02T18:22:03.878Z,10.95
2022-09-02T18:25:37.830Z,10.27
2022-09-02T18:29:42.841Z,12.75
2022-09-02T18:33:16.867Z,12.18
2022-09-02T18:37:17.802Z,21.00
2022-09-02T18:40:56.814Z,16.95
2022-09-02T18:44:48.867Z,14.60
2022-09-02T18:48:16.840Z,12.95
2022-09-02T18:51:51.831Z,13.30
2022-09-02T18:55:28.839Z,14.65
2022-09-02T18:59:00.003Z,11.32
2022-09-02T19:02:47.857Z,13.25
2022-09-02T19:06:11.832Z,13.45
2022-09-02T19:09:36.866Z,12.73
2022-09-02T19:13:00.882Z,11.25
2022-09-02T19:16:25.821Z,9.05
2022-09-02T19:19:50.834Z,9.40
2022-09-02T19:23:14.857Z,10.57
2022-09-02T19:26:48.823Z,10.05
2022-09-02T19:30:22.822Z,10.23
2022-09-02T19:33:48.839Z,6.93
2022-09-02T19:37:15.857Z,6.63
2022-09-02T19:40:48.873Z,7.32
2022-09-02T19:44:11.817Z,7.28
2022-09-02T19:48:05.577Z,7.38
2022-09-02T19:51:27.186Z,7.72
2022-09-02T19:54:52.906Z,6.97
2022-09-02T19:58:17.812Z,7.75
2022-09-02T20:01:43.926Z,6.70
2022-09-02T20:05:07.848Z,6.68
2022-09-02T20:08:38.829Z,6.15
2022-09-02T20:12:02.834Z,6.40
2022-09-02T20:15:26.873Z,5.63
2022-09-02T20:18:53.863Z,5.20
2022-09-02T20:22:12.648Z,7.15
2022-09-02T20:25:43.842Z,4.72
2022-09-02T20:29:20.911Z,5.47
2022-09-02T20:33:03.873Z,5.18
2022-09-02T20:40:12.871Z,5.03
2022-09-02T20:43:48.912Z,6.10
2022-09-02T20:47:29.871Z,4.82
2022-09-02T20:51:24.834Z,5.10
2022-09-02T20:55:00.936Z,5.50
2022-09-02T20:59:05.878Z,4.60
2022-09-02T21:02:32.951Z,7.10
2022-09-02T21:05:59.829Z,5.45
2022-09-02T21:09:28.880Z,5.35
2022-09-02T21:13:10.851Z,6.05
2022-09-02T21:16:53.881Z,6.33
2022-09-02T21:20:26.897Z,4.32
2022-09-02T21:24:02.913Z,3.38
2022-09-02T21:27:42.912Z,6.07
2022-09-02T21:31:11.960Z,4.78
2022-09-02T21:34:41.854Z,73.88
2022-09-02T21:38:11.874Z,7.00
2022-09-02T21:41:54.890Z,4.85
2022-09-02T21:45:39.937Z,5.55
2022-09-02T21:49:13.922Z,3.50
2022-09-02T21:52:47.944Z,4.45
2022-09-02T21:56:32.904Z,7.55
2022-09-02T22:00:06.891Z,3.65
2022-09-02T22:03:56.896Z,5.80
2022-09-02T22:07:43.937Z,5.65
2022-09-02T22:11:34.918Z,4.35
2022-09-02T22:15:22.934Z,4.60
2022-09-02T22:19:07.914Z,25.83
2022-09-02T22:22:36.859Z,7.05
2022-09-02T22:26:01.958Z,5.13
2022-09-02T22:30:10.942Z,7.80
2022-09-02T22:33:37.920Z,3.72
2022-09-02T22:37:24.924Z,4.32
2022-09-02T22:40:54.909Z,3.42
2022-09-02T22:44:21.879Z,7.15
2022-09-02T22:48:05.940Z,5.53
2022-09-02T22:52:01.912Z,4.28
2022-09-02T22:55:25.878Z,3.60
2022-09-02T22:59:08.965Z,4.93
2022-09-02T23:02:52.927Z,3.83
2022-09-02T23:06:44.970Z,4.53
2022-09-02T23:10:08.945Z,2.73
2022-09-02T23:13:39.980Z,5.85
2022-09-02T23:17:11.948Z,8.63
2022-09-02T23:20:47.954Z,6.65
2022-09-02T23:24:24.083Z,6.93
2022-09-02T23:28:06.225Z,6.25
2022-09-02T23:31:53.978Z,6.65
2022-09-02T23:35:45.931Z,6.63
2022-09-02T23:39:40.028Z,4.28
2022-09-02T23:43:05.957Z,5.43
2022-09-02T23:46:52.012Z,5.38
2022-09-02T23:50:35.961Z,4.95
2022-09-02T23:54:20.961Z,5.45
2022-09-02T23:57:59.955Z,4.03
